createdAt,value
2018-01-13T00:00:49.433Z,1.60
2018-01-13T00:03:17.594Z,1.50
2018-01-13T00:05:45.730Z,1.50
2018-01-13T00:08:13.884Z,1.50
2018-01-13T00:10:42.017Z,1.40
2018-01-13T00:13:10.173Z,1.50
2018-01-13T00:15:38.318Z,1.50
2018-01-13T00:18:06.487Z,1.50
2018-01-13T00:20:34.623Z,1.50
2018-01-13T00:23:02.796Z,1.50
2018-01-13T00:25:30.929Z,1.40
2018-01-13T00:27:59.081Z,1.40
2018-01-13T00:30:27.208Z,1.40
2018-01-13T00:32:55.402Z,1.40
2018-01-13T00:35:23.542Z,1.40
2018-01-13T00:37:51.702Z,1.40
2018-01-13T00:40:19.833Z,1.40
2018-01-13T00:42:48.000Z,1.40
2018-01-13T00:45:16.136Z,1.40
2018-01-13T00:47:44.295Z,1.40
2018-01-13T00:50:12.425Z,1.40
2018-01-13T00:52:40.581Z,1.40
2018-01-13T00:55:08.712Z,1.40
2018-01-13T00:57:36.864Z,1.40
2018-01-13T01:00:05.001Z,1.40
2018-01-13T01:02:33.948Z,1.40
2018-01-13T01:05:02.082Z,1.40
2018-01-13T01:07:30.241Z,1.40
2018-01-13T01:09:58.373Z,1.40
2018-01-13T01:12:26.538Z,1.40
2018-01-13T01:14:54.672Z,1.40
2018-01-13T01:17:23.587Z,1.40
2018-01-13T01:19:51.727Z,1.40
2018-01-13T01:22:20.662Z,1.40
2018-01-13T01:24:48.800Z,1.30
2018-01-13T01:27:17.721Z,1.40
2018-01-13T01:29:45.856Z,1.30
2018-01-13T01:32:14.751Z,1.40
2018-01-13T01:34:42.910Z,1.50
2018-01-13T01:37:11.047Z,1.40
2018-01-13T01:39:39.206Z,1.30
2018-01-13T01:42:07.338Z,1.30
2018-01-13T01:44:35.501Z,1.30
2018-01-13T01:47:03.661Z,1.30
2018-01-13T01:49:31.821Z,1.30
2018-01-13T01:51:59.949Z,1.30
2018-01-13T01:54:28.106Z,1.30
2018-01-13T01:56:57.010Z,1.30
2018-01-13T01:59:25.176Z,1.30
2018-01-13T02:01:54.072Z,1.30
2018-01-13T02:04:22.233Z,1.40
2018-01-13T02:06:51.142Z,1.30
2018-01-13T02:09:19.304Z,1.30
2018-01-13T02:11:48.205Z,1.30
2018-01-13T02:14:16.367Z,1.30
2018-01-13T02:16:45.259Z,1.30
2018-01-13T02:19:13.418Z,1.30
2018-01-13T02:21:41.545Z,1.30
2018-01-13T02:24:09.708Z,1.30
2018-01-13T02:26:37.841Z,1.30
2018-01-13T02:29:05.993Z,1.30
2018-01-13T02:31:34.129Z,1.30
2018-01-13T02:34:02.296Z,1.30
2018-01-13T02:36:30.416Z,1.30
2018-01-13T02:38:58.581Z,1.30
2018-01-13T02:41:26.717Z,1.30
2018-01-13T02:43:54.872Z,1.20
2018-01-13T02:46:23.005Z,1.20
2018-01-13T02:48:51.170Z,1.20
2018-01-13T02:51:19.302Z,1.20
2018-01-13T02:53:47.656Z,1.20
2018-01-13T02:56:15.796Z,1.20
2018-01-13T02:58:43.957Z,1.20
2018-01-13T03:01:12.089Z,1.20
2018-01-13T03:03:40.250Z,1.20
2018-01-13T03:06:08.373Z,1.20
2018-01-13T03:08:36.532Z,1.20
2018-01-13T03:11:04.671Z,1.20
2018-01-13T03:13:32.837Z,1.20
2018-01-13T03:16:00.978Z,1.20
2018-01-13T03:18:29.137Z,1.20
2018-01-13T03:20:57.267Z,1.20
2018-01-13T03:23:25.421Z,1.20
2018-01-13T03:25:53.565Z,1.20
2018-01-13T03:28:21.717Z,1.20
2018-01-13T03:30:49.858Z,1.20
2018-01-13T03:33:18.018Z,1.20
2018-01-13T03:35:46.148Z,1.20
2018-01-13T03:38:14.301Z,1.20
2018-01-13T03:40:42.431Z,1.10
2018-01-13T03:43:10.593Z,1.20
2018-01-13T03:45:38.732Z,1.20
2018-01-13T03:48:06.886Z,1.20
2018-01-13T03:50:35.018Z,1.20
2018-01-13T03:53:03.167Z,1.20
2018-01-13T03:55:31.314Z,1.20
2018-01-13T03:57:59.478Z,1.20
2018-01-13T04:00:27.608Z,1.20
2018-01-13T04:02:55.742Z,1.10
2018-01-13T04:05:23.901Z,1.20
2018-01-13T04:07:52.794Z,1.20
2018-01-13T04:10:21.270Z,1.20
2018-01-13T04:12:50.169Z,1.20
2018-01-13T04:15:18.333Z,1.20
2018-01-13T04:17:47.225Z,1.20
2018-01-13T04:20:15.395Z,1.20
2018-01-13T04:22:44.288Z,1.20
2018-01-13T04:25:12.445Z,1.40
2018-01-13T04:27:40.578Z,1.20
2018-01-13T04:30:08.732Z,1.20
2018-01-13T04:32:36.870Z,1.20
2018-01-13T04:35:05.029Z,1.20
2018-01-13T04:37:33.160Z,1.20
2018-01-13T04:40:01.312Z,1.20
2018-01-13T04:42:29.444Z,1.10
2018-01-13T04:44:57.610Z,1.10
2018-01-13T04:47:25.740Z,1.10
2018-01-13T04:49:53.897Z,1.10
2018-01-13T04:52:22.057Z,1.10
2018-01-13T04:54:50.221Z,1.10
2018-01-13T04:57:18.359Z,1.10
2018-01-13T04:59:46.537Z,1.10
2018-01-13T05:02:14.681Z,1.10
2018-01-13T05:04:42.846Z,1.10
2018-01-13T05:07:10.977Z,1.10
2018-01-13T05:09:39.138Z,1.10
2018-01-13T05:12:07.269Z,1.10
2018-01-13T05:14:35.432Z,1.10
2018-01-13T05:17:04.325Z,1.10
2018-01-13T05:19:32.478Z,1.00
2018-01-13T05:22:01.378Z,1.00
2018-01-13T05:24:29.532Z,1.00
2018-01-13T05:26:57.671Z,1.10
2018-01-13T05:29:25.835Z,1.00
2018-01-13T05:31:53.966Z,1.00
2018-01-13T05:34:22.125Z,1.00
2018-01-13T05:36:50.262Z,1.00
2018-01-13T05:39:18.421Z,1.00
2018-01-13T05:41:46.550Z,1.00
2018-01-13T05:44:14.709Z,1.00
2018-01-13T05:46:42.838Z,1.00
2018-01-13T05:49:11.001Z,1.00
2018-01-13T05:51:39.134Z,1.00
2018-01-13T05:54:07.293Z,1.00
2018-01-13T05:56:35.436Z,1.00
2018-01-13T05:59:03.585Z,1.00
2018-01-13T06:01:31.730Z,1.00
2018-01-13T06:03:59.914Z,1.00
2018-01-13T06:06:28.053Z,1.00
2018-01-13T06:08:56.211Z,1.00
2018-01-13T06:11:24.359Z,1.00
2018-01-13T06:13:52.522Z,1.00
2018-01-13T06:16:21.417Z,1.00
2018-01-13T06:18:49.572Z,1.10
2018-01-13T06:21:18.476Z,1.00
2018-01-13T06:23:46.633Z,1.00
2018-01-13T06:26:14.813Z,1.00
2018-01-13T06:28:42.974Z,1.00
2018-01-13T06:31:11.101Z,1.00
2018-01-13T06:33:39.232Z,1.00
2018-01-13T06:36:08.165Z,1.00
2018-01-13T06:38:36.300Z,0.90
2018-01-13T06:41:05.231Z,0.90
2018-01-13T06:43:33.365Z,0.90
2018-01-13T06:46:02.291Z,0.90
2018-01-13T06:48:30.436Z,1.00
2018-01-13T06:50:59.361Z,0.90
2018-01-13T06:53:27.495Z,0.90
2018-01-13T06:55:56.416Z,0.90
2018-01-13T06:58:24.546Z,0.90
2018-01-13T07:00:52.702Z,0.90
2018-01-13T07:03:20.838Z,0.90
2018-01-13T07:05:48.996Z,0.90
2018-01-13T07:08:17.135Z,0.90
2018-01-13T07:10:45.298Z,0.90
2018-01-13T07:13:13.428Z,0.90
2018-01-13T07:15:41.591Z,0.90
2018-01-13T07:18:09.729Z,0.90
2018-01-13T07:20:37.880Z,0.90
2018-01-13T07:23:06.021Z,0.90
2018-01-13T07:25:34.173Z,0.90
2018-01-13T07:28:02.313Z,1.00
2018-01-13T07:30:30.469Z,0.90
2018-01-13T07:32:58.607Z,1.00
2018-01-13T07:35:26.790Z,1.00
2018-01-13T07:37:54.912Z,0.90
2018-01-13T07:40:23.079Z,0.90
2018-01-13T07:42:51.209Z,1.00
2018-01-13T07:45:19.372Z,0.90
2018-01-13T07:47:47.501Z,1.00
2018-01-13T07:50:15.660Z,0.90
2018-01-13T07:52:43.801Z,1.00
2018-01-13T07:55:11.963Z,1.00
2018-01-13T07:57:40.095Z,1.00
2018-01-13T08:00:08.266Z,1.00
2018-01-13T08:02:36.403Z,1.00
2018-01-13T08:05:04.552Z,1.00
2018-01-13T08:07:32.692Z,1.00
2018-01-13T08:10:00.845Z,1.00
2018-01-13T08:12:28.977Z,1.00
2018-01-13T08:14:57.135Z,1.00
2018-01-13T08:17:25.270Z,1.00
2018-01-13T08:19:53.433Z,1.00
2018-01-13T08:22:21.566Z,1.10
2018-01-13T08:24:49.725Z,1.10
2018-01-13T08:27:17.853Z,1.10
2018-01-13T08:29:46.010Z,1.10
2018-01-13T08:32:14.147Z,1.10
2018-01-13T08:34:42.313Z,1.10
2018-01-13T08:37:10.445Z,1.10
2018-01-13T08:39:38.610Z,1.10
2018-01-13T08:42:06.741Z,1.10
2018-01-13T08:44:34.909Z,1.10
2018-01-13T08:47:03.038Z,1.20
2018-01-13T08:49:31.197Z,1.20
2018-01-13T08:51:59.324Z,1.20
2018-01-13T08:54:27.478Z,1.20
2018-01-13T08:56:55.608Z,1.20
2018-01-13T08:59:23.736Z,1.20
2018-01-13T09:01:57.629Z,1.20
2018-01-13T09:04:25.762Z,1.30
2018-01-13T09:06:53.928Z,1.30
2018-01-13T09:09:22.057Z,1.30
2018-01-13T09:11:50.256Z,1.30
2018-01-13T09:14:18.365Z,1.30
2018-01-13T09:16:46.530Z,1.30
2018-01-13T09:19:14.901Z,1.30
2018-01-13T09:21:43.049Z,1.30
2018-01-13T09:24:11.186Z,1.30
2018-01-13T09:26:39.348Z,1.30
2018-01-13T09:29:07.477Z,1.30
2018-01-13T09:31:35.638Z,1.40
2018-01-13T09:34:03.769Z,1.40
2018-01-13T09:36:31.932Z,1.30
2018-01-13T09:39:00.062Z,1.40
2018-01-13T09:41:28.220Z,1.40
2018-01-13T09:43:56.348Z,1.40
2018-01-13T09:46:24.542Z,1.40
2018-01-13T09:48:52.685Z,1.40
2018-01-13T09:51:20.844Z,1.40
2018-01-13T09:53:48.982Z,1.40
2018-01-13T09:56:17.144Z,1.40
2018-01-13T09:58:45.281Z,1.40
2018-01-13T10:01:13.436Z,1.40
2018-01-13T10:03:41.606Z,1.50
2018-01-13T10:06:10.517Z,1.50
2018-01-13T10:08:38.656Z,1.50
2018-01-13T10:11:06.818Z,1.50
2018-01-13T10:13:34.944Z,1.50
2018-01-13T10:16:03.100Z,1.50
2018-01-13T10:18:31.234Z,1.60
2018-01-13T10:20:59.389Z,1.50
2018-01-13T10:23:27.526Z,1.60
2018-01-13T10:25:55.794Z,1.60
2018-01-13T10:28:24.692Z,1.60
2018-01-13T10:30:52.845Z,1.60
2018-01-13T10:33:21.746Z,1.60
2018-01-13T10:35:49.905Z,1.60
2018-01-13T10:38:18.897Z,1.60
2018-01-13T10:40:47.821Z,1.60
2018-01-13T10:43:15.961Z,1.60
2018-01-13T10:45:44.113Z,1.60
2018-01-13T10:48:12.267Z,1.60
2018-01-13T10:50:40.420Z,1.60
2018-01-13T10:53:08.558Z,1.60
2018-01-13T10:55:37.489Z,1.60
2018-01-13T10:58:05.622Z,1.60
2018-01-13T11:00:34.553Z,1.60
2018-01-13T11:03:02.673Z,1.60
2018-01-13T11:05:30.828Z,1.60
2018-01-13T11:07:58.956Z,1.60
2018-01-13T11:10:27.116Z,1.60
2018-01-13T11:12:55.249Z,1.60
2018-01-13T11:15:23.408Z,1.60
2018-01-13T11:17:51.539Z,1.50
2018-01-13T11:20:19.693Z,1.60
2018-01-13T11:22:47.823Z,1.60
2018-01-13T11:25:16.000Z,1.60
2018-01-13T11:27:44.147Z,1.60
2018-01-13T11:30:12.325Z,1.70
2018-01-13T11:32:40.504Z,1.70
2018-01-13T11:35:08.658Z,1.90
2018-01-13T11:37:36.829Z,2.10
2018-01-13T11:40:04.972Z,2.30
2018-01-13T11:42:33.888Z,2.40
2018-01-13T11:45:02.025Z,2.30
2018-01-13T11:47:30.189Z,2.20
2018-01-13T11:49:58.318Z,2.10
2018-01-13T11:52:26.551Z,1.90
2018-01-13T11:54:54.684Z,1.80
2018-01-13T11:57:22.859Z,1.70
2018-01-13T11:59:50.989Z,1.70
2018-01-13T12:02:19.158Z,1.70
2018-01-13T12:04:47.280Z,1.80
2018-01-13T12:07:15.434Z,1.60
2018-01-13T12:09:43.561Z,1.60
2018-01-13T12:12:11.729Z,1.60
2018-01-13T12:14:39.857Z,1.50
2018-01-13T12:17:08.020Z,1.40
2018-01-13T12:19:36.149Z,1.40
2018-01-13T12:22:04.362Z,1.50
2018-01-13T12:24:33.261Z,1.50
2018-01-13T12:27:01.469Z,1.50
2018-01-13T12:29:29.613Z,1.50
2018-01-13T12:31:57.774Z,1.50
2018-01-13T12:34:25.895Z,1.40
2018-01-13T12:36:54.057Z,1.40
2018-01-13T12:39:22.198Z,1.40
2018-01-13T12:41:50.354Z,1.40
2018-01-13T12:44:18.488Z,1.50
2018-01-13T12:46:46.644Z,1.50
2018-01-13T12:49:14.776Z,1.40
2018-01-13T12:51:43.031Z,1.40
2018-01-13T12:54:11.281Z,1.40
2018-01-13T12:56:39.558Z,1.30
2018-01-13T12:59:07.701Z,1.20
2018-01-13T13:01:35.869Z,1.20
2018-01-13T13:04:04.013Z,1.20
2018-01-13T13:06:32.185Z,1.20
2018-01-13T13:09:01.093Z,1.10
2018-01-13T13:11:30.093Z,1.10
2018-01-13T13:13:59.009Z,1.10
2018-01-13T13:16:27.168Z,1.10
2018-01-13T13:18:56.065Z,1.00
2018-01-13T13:21:24.229Z,1.00
2018-01-13T13:23:53.122Z,1.00
2018-01-13T13:26:21.291Z,0.90
2018-01-13T13:28:50.198Z,0.90
2018-01-13T13:31:18.364Z,0.90
2018-01-13T13:33:47.250Z,0.80
2018-01-13T13:36:15.408Z,0.80
2018-01-13T13:38:44.325Z,0.80
2018-01-13T13:41:12.508Z,0.80
2018-01-13T13:43:40.641Z,0.80
2018-01-13T13:46:08.792Z,0.80
2018-01-13T13:48:36.921Z,0.80
2018-01-13T13:51:05.099Z,0.70
2018-01-13T13:53:33.225Z,0.70
2018-01-13T13:56:01.381Z,0.70
2018-01-13T13:58:29.799Z,0.70
2018-01-13T14:01:21.945Z,0.70
2018-01-13T14:03:26.098Z,0.60
2018-01-13T14:05:54.218Z,0.60
2018-01-13T14:08:22.368Z,0.60
2018-01-13T14:10:50.497Z,0.60
2018-01-13T14:13:18.659Z,0.60
2018-01-13T14:15:47.548Z,0.60
2018-01-13T14:18:15.715Z,0.60
2018-01-13T14:20:44.612Z,0.50
2018-01-13T14:23:12.757Z,0.70
2018-01-13T14:25:40.891Z,0.50
2018-01-13T14:28:09.049Z,0.50
2018-01-13T14:30:37.172Z,0.50
2018-01-13T14:33:05.342Z,0.50
2018-01-13T14:35:33.501Z,0.50
2018-01-13T14:38:01.633Z,0.50
2018-01-13T14:40:29.792Z,0.50
2018-01-13T14:42:57.926Z,0.40
2018-01-13T14:45:26.077Z,0.40
2018-01-13T14:47:54.213Z,0.40
2018-01-13T14:50:22.394Z,0.40
2018-01-13T14:52:50.733Z,0.40
2018-01-13T14:55:18.924Z,0.40
2018-01-13T14:57:47.827Z,0.40
2018-01-13T15:00:16.190Z,0.30
2018-01-13T15:02:44.315Z,0.30
2018-01-13T15:05:12.457Z,0.30
2018-01-13T15:07:40.605Z,0.30
2018-01-13T15:10:08.733Z,0.30
2018-01-13T15:12:36.889Z,0.30
2018-01-13T15:15:05.056Z,0.20
2018-01-13T15:17:33.225Z,0.20
2018-01-13T15:20:01.372Z,0.20
2018-01-13T15:22:29.547Z,0.20
2018-01-13T15:24:57.674Z,0.20
2018-01-13T15:27:25.834Z,0.20
2018-01-13T15:29:53.956Z,0.20
2018-01-13T15:32:22.116Z,0.10
2018-01-13T15:34:50.252Z,0.10
2018-01-13T15:37:18.414Z,0.10
2018-01-13T15:39:46.551Z,0.10
2018-01-13T15:42:14.701Z,0.10
2018-01-13T15:44:42.834Z,0.10
2018-01-13T15:47:11.050Z,0.10
2018-01-13T15:49:39.218Z,0.10
2018-01-13T15:52:07.384Z,0.10
2018-01-13T15:54:35.727Z,0.10
2018-01-13T15:57:04.106Z,0.10
2018-01-13T15:59:32.261Z,0.10
2018-01-13T16:02:00.542Z,0.10
2018-01-13T16:04:29.499Z,0.10
2018-01-13T16:06:57.781Z,0.10
2018-01-13T16:09:25.957Z,0.10
2018-01-13T16:11:54.127Z,0.10
2018-01-13T16:14:22.311Z,0.10
2018-01-13T16:16:50.472Z,0.10
2018-01-13T16:19:18.615Z,0.10
2018-01-13T16:21:46.802Z,0.10
2018-01-13T16:24:14.983Z,0.10
2018-01-13T16:26:43.135Z,0.10
2018-01-13T16:29:11.306Z,0.10
2018-01-13T16:31:39.501Z,0.10
2018-01-13T16:34:07.654Z,0.10
2018-01-13T16:36:35.804Z,0.10
2018-01-13T16:39:03.958Z,0.10
2018-01-13T16:41:32.156Z,0.10
2018-01-13T16:44:01.145Z,0.10
2018-01-13T16:46:30.168Z,0.10
2018-01-13T16:48:58.440Z,0.00
2018-01-13T16:51:26.611Z,0.10
2018-01-13T16:53:54.894Z,0.10
2018-01-13T16:56:23.165Z,0.10
2018-01-13T16:58:51.347Z,0.10
2018-01-13T17:01:19.505Z,0.10
2018-01-13T17:03:47.686Z,0.10
2018-01-13T17:06:15.825Z,0.10
2018-01-13T17:08:43.990Z,0.10
2018-01-13T17:11:12.128Z,0.20
2018-01-13T17:13:40.291Z,0.20
2018-01-13T17:16:08.425Z,0.20
2018-01-13T17:18:36.609Z,0.20
2018-01-13T17:21:05.499Z,0.20
2018-01-13T17:23:33.675Z,0.20
2018-01-13T17:26:01.814Z,0.20
2018-01-13T17:28:30.128Z,0.20
2018-01-13T17:30:58.333Z,0.20
2018-01-13T17:33:26.504Z,0.20
2018-01-13T17:35:54.714Z,0.30
2018-01-13T17:38:23.060Z,0.30
2018-01-13T17:40:51.630Z,0.30
2018-01-13T17:43:19.894Z,0.30
2018-01-13T17:45:48.024Z,0.30
2018-01-13T17:48:16.212Z,0.30
2018-01-13T17:50:45.122Z,0.30
2018-01-13T17:53:13.304Z,0.40
2018-01-13T17:55:41.463Z,0.40
2018-01-13T17:58:09.751Z,0.40
2018-01-13T18:00:37.901Z,0.40
2018-01-13T18:03:06.666Z,0.40
2018-01-13T18:05:34.815Z,0.40
2018-01-13T18:08:03.025Z,0.40
2018-01-13T18:10:31.166Z,0.40
2018-01-13T18:12:59.316Z,0.40
2018-01-13T18:15:27.462Z,0.40
2018-01-13T18:17:56.393Z,0.50
2018-01-13T18:20:24.580Z,0.50
2018-01-13T18:22:52.819Z,0.40
2018-01-13T18:25:21.445Z,0.50
2018-01-13T18:27:49.633Z,0.50
2018-01-13T18:30:17.821Z,0.50
2018-01-13T18:32:46.008Z,0.50
2018-01-13T18:35:14.386Z,0.50
2018-01-13T18:37:42.790Z,0.50
2018-01-13T18:40:10.941Z,0.60
2018-01-13T18:42:39.900Z,0.60
2018-01-13T18:45:08.608Z,0.60
2018-01-13T18:47:36.830Z,0.60
2018-01-13T18:50:04.975Z,0.60
2018-01-13T18:52:33.226Z,0.60
2018-01-13T18:55:01.386Z,0.60
2018-01-13T18:57:29.559Z,0.60
2018-01-13T18:59:57.741Z,0.60
2018-01-13T19:02:25.873Z,0.70
2018-01-13T19:04:54.315Z,0.70
2018-01-13T19:07:22.804Z,0.70
2018-01-13T19:09:51.363Z,0.70
2018-01-13T19:12:19.960Z,0.70
2018-01-13T19:14:48.692Z,0.70
2018-01-13T19:17:17.285Z,0.70
2018-01-13T19:19:46.047Z,0.70
2018-01-13T19:22:14.841Z,0.70
2018-01-13T19:24:43.647Z,0.70
2018-01-13T19:27:12.780Z,0.70
2018-01-13T19:29:41.005Z,0.70
2018-01-13T19:32:09.142Z,0.70
2018-01-13T19:34:37.307Z,0.70
2018-01-13T19:37:05.448Z,0.70
2018-01-13T19:39:33.617Z,0.80
2018-01-13T19:42:01.774Z,0.70
2018-01-13T19:44:30.003Z,0.70
2018-01-13T19:46:58.948Z,0.80
2018-01-13T19:49:27.108Z,0.80
2018-01-13T19:51:55.237Z,0.80
2018-01-13T19:54:23.538Z,0.80
2018-01-13T19:56:52.438Z,0.80
2018-01-13T19:59:20.683Z,0.80
2018-01-13T20:01:48.857Z,0.80
2018-01-13T20:04:17.017Z,0.80
2018-01-13T20:06:45.277Z,0.80
2018-01-13T20:09:13.457Z,0.80
2018-01-13T20:11:41.615Z,0.80
2018-01-13T20:14:09.827Z,0.80
2018-01-13T20:16:38.003Z,0.80
2018-01-13T20:19:06.178Z,0.80
2018-01-13T20:21:34.432Z,0.80
2018-01-13T20:24:03.091Z,0.80
2018-01-13T20:26:31.323Z,0.80
2018-01-13T20:29:00.281Z,0.80
2018-01-13T20:31:28.505Z,0.80
2018-01-13T20:33:56.778Z,0.80
2018-01-13T20:36:24.925Z,0.80
2018-01-13T20:38:53.113Z,0.80
2018-01-13T20:41:22.047Z,0.80
2018-01-13T20:43:50.254Z,0.80
2018-01-13T20:46:18.415Z,0.80
2018-01-13T20:48:46.576Z,0.80
2018-01-13T20:51:14.712Z,0.80
2018-01-13T20:53:42.896Z,0.80
2018-01-13T20:56:11.109Z,0.80
2018-01-13T20:58:39.336Z,0.80
2018-01-13T21:01:07.521Z,0.80
2018-01-13T21:03:35.792Z,0.80
2018-01-13T21:06:03.953Z,0.80
2018-01-13T21:08:32.154Z,0.70
2018-01-13T21:11:00.300Z,0.80
2018-01-13T21:13:28.532Z,0.80
2018-01-13T21:15:56.666Z,0.80
2018-01-13T21:18:24.829Z,0.80
2018-01-13T21:20:52.964Z,0.80
2018-01-13T21:23:21.173Z,0.80
2018-01-13T21:25:49.365Z,0.80
2018-01-13T21:28:17.518Z,0.80
2018-01-13T21:30:45.678Z,0.80
2018-01-13T21:33:14.574Z,0.80
2018-01-13T21:35:42.741Z,0.80
2018-01-13T21:38:11.672Z,0.80
2018-01-13T21:40:39.861Z,0.80
2018-01-13T21:43:08.151Z,0.80
2018-01-13T21:45:36.314Z,0.80
2018-01-13T21:48:04.458Z,0.80
2018-01-13T21:50:32.650Z,0.80
2018-01-13T21:53:00.809Z,0.80
2018-01-13T21:55:28.989Z,0.70
2018-01-13T21:57:57.155Z,0.80
2018-01-13T22:00:25.315Z,0.80
2018-01-13T22:02:53.563Z,0.70
2018-01-13T22:05:21.714Z,0.70
2018-01-13T22:07:49.857Z,0.70
2018-01-13T22:10:18.032Z,0.80
2018-01-13T22:12:46.253Z,0.70
2018-01-13T22:15:14.426Z,0.70
2018-01-13T22:17:42.558Z,0.80
2018-01-13T22:20:10.724Z,0.70
2018-01-13T22:22:38.870Z,0.70
2018-01-13T22:25:07.822Z,0.70
2018-01-13T22:27:36.040Z,0.70
2018-01-13T22:30:04.201Z,0.70
2018-01-13T22:32:32.355Z,0.70
2018-01-13T22:35:00.539Z,0.70
2018-01-13T22:37:28.678Z,0.70
2018-01-13T22:39:56.857Z,0.70
2018-01-13T22:42:25.001Z,0.70
2018-01-13T22:44:53.158Z,0.70
2018-01-13T22:47:21.284Z,0.70
2018-01-13T22:49:49.477Z,0.70
2018-01-13T22:52:17.620Z,0.70
2018-01-13T22:54:45.768Z,0.70
2018-01-13T22:57:13.909Z,0.70
2018-01-13T22:59:42.090Z,0.70
2018-01-13T23:02:10.989Z,0.70
2018-01-13T23:04:39.149Z,0.70
2018-01-13T23:07:08.045Z,0.70
2018-01-13T23:09:36.206Z,0.70
2018-01-13T23:12:05.113Z,0.70
2018-01-13T23:14:33.270Z,0.70
2018-01-13T23:17:01.402Z,0.70
2018-01-13T23:19:29.561Z,0.70
2018-01-13T23:21:57.689Z,0.70
2018-01-13T23:24:25.852Z,0.70
2018-01-13T23:26:53.984Z,0.70
2018-01-13T23:29:22.140Z,0.70
2018-01-13T23:31:50.264Z,0.70
2018-01-13T23:34:18.417Z,0.70
2018-01-13T23:36:46.557Z,0.70
2018-01-13T23:39:14.711Z,0.70
2018-01-13T23:41:42.845Z,0.70
2018-01-13T23:44:10.998Z,0.70
2018-01-13T23:46:39.125Z,0.70
2018-01-13T23:49:08.022Z,0.70
2018-01-13T23:51:36.176Z,0.60
2018-01-13T23:54:04.307Z,0.60
2018-01-13T23:56:32.469Z,0.70
2018-01-13T23:59:00.601Z,0.70
